Time;durP1;ratioP1;P1;durP2;ratioP2;P2;SDS_P1;SDS_P2;PMS_P1;PMS_P2;Temp;Humidity;BMP_temperature;BMP_pressure;BME280_temperature;BME280_humidity;BME280_pressure;Samples;Min_cycle;Max_cycle;Signal;HPM_P1;HPM_P2
2023/12/03 00:00:49;;;;;;;34.22;13.00;;;;;;;-0.04;100.00;100895.44;5170825;28;20013;-76
2023/12/03 00:03:20;;;;;;;33.78;12.10;;;;;;;-0.04;100.00;100893.72;5192189;28;20108;-77
2023/12/03 00:05:50;;;;;;;34.50;12.13;;;;;;;-0.10;100.00;100901.34;5189127;28;20037;-78
2023/12/03 00:08:21;;;;;;;35.72;12.50;;;;;;;-0.08;100.00;100889.41;5194621;28;20076;-78
2023/12/03 00:10:51;;;;;;;38.58;14.57;;;;;;;-0.07;100.00;100885.13;5182873;28;20050;-75
2023/12/03 00:13:21;;;;;;;37.33;13.55;;;;;;;-0.11;100.00;100893.63;5187581;28;20491;-76
2023/12/03 00:15:52;;;;;;;35.20;13.07;;;;;;;-0.09;100.00;100891.94;5187120;28;20120;-77
2023/12/03 00:18:22;;;;;;;35.83;12.57;;;;;;;0.00;100.00;100888.66;5186023;28;20033;-78
2023/12/03 00:20:52;;;;;;;37.75;13.40;;;;;;;-0.10;100.00;100890.22;5173695;28;20021;-76
2023/12/03 00:23:23;;;;;;;32.97;13.05;;;;;;;-0.12;100.00;100886.75;5175100;28;20549;-78
2023/12/03 00:25:53;;;;;;;33.25;12.25;;;;;;;-0.14;100.00;100885.88;5188588;28;20026;-78
2023/12/03 00:28:23;;;;;;;34.60;12.48;;;;;;;-0.17;100.00;100879.03;5190530;28;20041;-78
2023/12/03 00:30:54;;;;;;;35.75;13.05;;;;;;;-0.15;100.00;100887.59;5187747;28;20028;-76
2023/12/03 00:33:24;;;;;;;35.35;12.60;;;;;;;-0.04;100.00;100882.59;5185584;28;20283;-76
2023/12/03 00:35:54;;;;;;;32.47;12.35;;;;;;;-0.11;100.00;100881.66;5192017;28;20538;-78
2023/12/03 00:38:25;;;;;;;32.67;12.13;;;;;;;-0.03;100.00;100881.75;5172712;28;20036;-78
2023/12/03 00:40:56;;;;;;;32.30;11.90;;;;;;;-0.12;100.00;100882.50;5184770;28;20038;-78
2023/12/03 00:43:26;;;;;;;31.80;12.02;;;;;;;-0.20;100.00;100881.53;5190964;28;20091;-76
2023/12/03 00:45:57;;;;;;;30.63;11.98;;;;;;;-0.13;100.00;100882.47;5188725;28;20033;-76
2023/12/03 00:48:28;;;;;;;29.85;10.85;;;;;;;-0.26;100.00;100893.44;5204926;22;20153;-73
2023/12/03 00:50:58;;;;;;;35.08;11.73;;;;;;;-0.21;100.00;100886.66;5166282;28;23139;-73
2023/12/03 00:53:29;;;;;;;32.38;11.95;;;;;;;-0.21;100.00;100881.53;5167883;28;20030;-73
2023/12/03 00:55:59;;;;;;;34.28;11.50;;;;;;;-0.24;100.00;100889.22;5167168;28;20030;-73
2023/12/03 00:58:29;;;;;;;32.72;11.68;;;;;;;-0.26;100.00;100894.31;5156041;28;20469;-73
2023/12/03 01:00:59;;;;;;;34.30;11.35;;;;;;;-0.32;100.00;100895.94;5152110;28;20516;-74
2023/12/03 01:03:30;;;;;;;33.30;12.13;;;;;;;-0.27;100.00;100894.28;5136269;28;20034;-73
2023/12/03 01:06:01;;;;;;;31.17;11.82;;;;;;;-0.20;100.00;100889.25;5147622;28;20030;-73
2023/12/03 01:08:31;;;;;;;33.60;11.52;;;;;;;-0.27;100.00;100892.59;5149365;28;20113;-73
2023/12/03 01:11:05;;;;;;;28.20;11.00;;;;;;;-0.18;100.00;100895.25;5137645;28;20597;-73
2023/12/03 01:13:35;;;;;;;30.73;11.53;;;;;;;0.02;100.00;100904.94;5140035;28;20026;-73
2023/12/03 01:16:13;;;;;;;26.30;10.40;;;;;;;-0.15;100.00;100910.72;5140570;28;20365;-74
2023/12/03 01:18:44;;;;;;;32.55;12.32;;;;;;;-0.24;100.00;100904.63;5145877;28;20751;-73
2023/12/03 01:21:14;;;;;;;31.60;10.75;;;;;;;-0.34;100.00;100902.75;5138024;28;20026;-73
2023/12/03 01:23:44;;;;;;;34.15;11.57;;;;;;;-0.29;100.00;100907.09;5136313;28;20395;-73
2023/12/03 01:26:14;;;;;;;31.63;12.23;;;;;;;-0.23;100.00;100901.19;5141862;28;20544;-73
2023/12/03 01:28:45;;;;;;;31.15;11.18;;;;;;;-0.40;100.00;100905.25;5143953;28;20031;-73
2023/12/03 01:31:16;;;;;;;29.60;11.13;;;;;;;-0.43;100.00;100908.63;5151936;28;20158;-73
2023/12/03 01:33:46;;;;;;;35.35;11.60;;;;;;;-0.35;100.00;100911.31;5150220;28;20030;-73
2023/12/03 01:36:16;;;;;;;30.80;11.55;;;;;;;-0.45;100.00;100923.16;5155343;28;20101;-72
2023/12/03 01:38:47;;;;;;;32.50;11.77;;;;;;;-0.48;100.00;100923.13;5153133;28;20034;-73
2023/12/03 01:41:17;;;;;;;29.48;10.75;;;;;;;-0.40;100.00;100920.66;5152182;28;20014;-73
2023/12/03 01:43:52;;;;;;;29.77;11.90;;;;;;;-0.42;100.00;100920.63;5146602;28;20026;-73
2023/12/03 01:46:22;;;;;;;31.67;11.77;;;;;;;-0.44;100.00;100929.13;5136746;28;20508;-73
2023/12/03 01:48:53;;;;;;;33.90;11.35;;;;;;;-0.46;100.00;100925.69;5145225;28;20097;-73
2023/12/03 01:51:24;;;;;;;31.45;11.60;;;;;;;-0.44;100.00;100934.25;5153736;28;20117;-73
2023/12/03 01:53:54;;;;;;;36.72;12.15;;;;;;;-0.47;100.00;100939.34;5146595;28;20022;-73
2023/12/03 01:56:25;;;;;;;34.53;11.57;;;;;;;-0.47;100.00;100931.66;5150597;28;20112;-72
2023/12/03 01:58:55;;;;;;;33.42;12.57;;;;;;;-0.45;100.00;100940.25;5146809;28;20037;-74
2023/12/03 02:01:26;;;;;;;33.15;12.02;;;;;;;-0.56;100.00;100944.38;5143585;28;20101;-73
2023/12/03 02:03:56;;;;;;;36.47;12.35;;;;;;;-0.61;100.00;100949.44;5146302;28;20038;-73
2023/12/03 02:06:26;;;;;;;33.72;12.15;;;;;;;-0.57;100.00;100947.78;5146261;28;20030;-73
2023/12/03 02:08:56;;;;;;;38.58;12.10;;;;;;;-0.53;100.00;100944.41;5146187;28;20453;-73
2023/12/03 02:11:27;;;;;;;34.95;13.00;;;;;;;-0.56;100.00;100952.06;5147928;28;20080;-73
2023/12/03 02:13:57;;;;;;;36.00;12.90;;;;;;;-0.56;100.00;100950.34;5152683;28;20054;-73
2023/12/03 02:16:29;;;;;;;34.78;12.32;;;;;;;-0.58;100.00;100962.31;5147405;28;20056;-73
2023/12/03 02:18:59;;;;;;;34.40;12.77;;;;;;;-0.60;100.00;100952.84;5154290;28;20161;-73
2023/12/03 02:21:30;;;;;;;34.92;12.05;;;;;;;-0.48;100.00;100948.78;5148217;28;20027;-73
2023/12/03 02:24:00;;;;;;;38.08;13.05;;;;;;;-0.52;100.00;100964.09;5148355;28;20038;-73
2023/12/03 02:26:30;;;;;;;34.25;12.35;;;;;;;-0.49;100.00;100953.88;5146274;28;20027;-73
2023/12/03 02:29:01;;;;;;;31.55;11.15;;;;;;;-0.43;100.00;100953.94;5149874;28;20535;-74
2023/12/03 02:31:31;;;;;;;34.97;12.55;;;;;;;-0.39;100.00;100950.59;5151482;28;20061;-73
2023/12/03 02:34:08;;;;;;;33.60;11.32;;;;;;;-0.38;100.00;100949.75;5145271;28;20038;-72
2023/12/03 02:36:38;;;;;;;30.42;10.85;;;;;;;-0.37;100.00;100948.94;5152703;28;20034;-72
2023/12/03 02:39:09;;;;;;;36.65;12.07;;;;;;;-0.38;100.00;100955.75;5150115;28;20031;-73
2023/12/03 02:41:39;;;;;;;30.05;11.38;;;;;;;-0.43;100.00;100951.38;5152852;28;20030;-73
2023/12/03 02:44:10;;;;;;;29.23;11.25;;;;;;;-0.42;100.00;100951.41;5146819;28;20443;-73
2023/12/03 02:46:40;;;;;;;31.50;12.13;;;;;;;-0.45;100.00;100948.81;5149633;28;20026;-74
2023/12/03 02:49:10;;;;;;;33.63;11.90;;;;;;;-0.45;100.00;100953.06;5147481;28;20408;-73
2023/12/03 02:51:40;;;;;;;31.17;11.52;;;;;;;-0.41;100.00;100952.31;5149346;28;20102;-72
2023/12/03 02:54:11;;;;;;;36.22;13.27;;;;;;;-0.38;100.00;100954.91;5150203;28;20034;-72
2023/12/03 02:56:42;;;;;;;36.67;12.60;;;;;;;-0.55;100.00;100962.34;5149712;28;20110;-72
2023/12/03 02:59:12;;;;;;;32.92;11.95;;;;;;;-0.47;100.00;100954.75;5152549;28;20037;-72
2023/12/03 03:01:43;;;;;;;32.15;12.25;;;;;;;-0.41;100.00;100952.31;5153380;28;20030;-73
2023/12/03 03:04:13;;;;;;;34.00;11.88;;;;;;;-0.39;100.00;100954.03;5144831;28;20034;-73
2023/12/03 03:06:43;;;;;;;35.33;12.00;;;;;;;-0.46;100.00;100951.34;5149250;28;20034;-73
2023/12/03 03:09:14;;;;;;;35.58;12.25;;;;;;;-0.41;100.00;100949.72;5152366;28;20436;-73
2023/12/03 03:11:44;;;;;;;34.72;12.23;;;;;;;-0.33;100.00;100958.38;5148858;28;20025;-73
2023/12/03 03:14:14;;;;;;;32.17;11.50;;;;;;;-0.31;100.00;100956.69;5150108;28;20507;-73
2023/12/03 03:16:44;;;;;;;33.60;12.32;;;;;;;-0.30;100.00;100958.41;5149396;28;20030;-73
2023/12/03 03:19:15;;;;;;;37.60;12.65;;;;;;;-0.36;100.00;100969.47;5156271;28;20101;-73
2023/12/03 03:21:45;;;;;;;39.33;12.77;;;;;;;-0.37;100.00;100959.19;5152961;28;20026;-73
2023/12/03 03:24:15;;;;;;;32.30;12.07;;;;;;;-0.32;100.00;100967.81;5148945;28;20026;-73
2023/12/03 03:26:46;;;;;;;35.03;13.40;;;;;;;-0.34;100.00;100974.63;5151581;28;20061;-73
2023/12/03 03:29:16;;;;;;;33.97;12.38;;;;;;;-0.25;100.00;100967.06;5148405;28;20031;-73
2023/12/03 03:31:46;;;;;;;38.85;12.95;;;;;;;-0.25;100.00;100961.94;5148819;28;20035;-73
2023/12/03 03:34:16;;;;;;;36.53;12.93;;;;;;;-0.26;100.00;100967.88;5149261;28;20117;-73
2023/12/03 03:36:47;;;;;;;32.83;12.07;;;;;;;-0.17;100.00;100965.47;5148432;28;20439;-73
2023/12/03 03:39:17;;;;;;;36.17;12.73;;;;;;;-0.15;100.00;100954.38;5151967;28;20046;-74
2023/12/03 03:41:47;;;;;;;35.35;12.90;;;;;;;-0.15;100.00;100958.63;5148901;28;20018;-74
2023/12/03 03:44:18;;;;;;;34.55;12.70;;;;;;;-0.20;100.00;100957.72;5152784;28;20038;-73
2023/12/03 03:46:48;;;;;;;31.13;11.88;;;;;;;-0.30;100.00;100963.56;5149641;28;20104;-73
2023/12/03 03:49:18;;;;;;;34.20;12.07;;;;;;;-0.29;100.00;100968.72;5154316;28;20031;-73
2023/12/03 03:51:50;;;;;;;34.10;11.93;;;;;;;-0.34;100.00;100956.66;5149132;28;20053;-73
2023/12/03 03:54:20;;;;;;;34.72;12.60;;;;;;;-0.35;100.00;100962.63;5147070;28;20113;-73
2023/12/03 03:56:50;;;;;;;33.55;12.20;;;;;;;-0.39;100.00;100960.88;5154217;28;20433;-73
2023/12/03 03:59:21;;;;;;;34.55;12.18;;;;;;;-0.42;100.00;100964.25;5150279;28;20041;-74
2023/12/03 04:01:51;;;;;;;33.40;11.95;;;;;;;-0.34;100.00;100962.69;5150943;28;20022;-73
2023/12/03 04:04:21;;;;;;;29.38;11.25;;;;;;;-0.28;100.00;100960.19;5146954;28;20105;-73
2023/12/03 04:06:52;;;;;;;35.47;12.35;;;;;;;-0.34;100.00;100972.06;5151391;28;20033;-72
2023/12/03 04:09:22;;;;;;;35.13;13.00;;;;;;;-0.32;100.00;100965.25;5148740;28;20600;-73
2023/12/03 04:11:52;;;;;;;42.00;13.13;;;;;;;-0.35;100.00;100975.47;5148456;28;20652;-72
2023/12/03 04:14:23;;;;;;;30.58;12.30;;;;;;;-0.21;100.00;100968.84;5148057;28;20058;-73
2023/12/03 04:16:53;;;;;;;41.90;12.60;;;;;;;-0.34;100.00;100962.69;5151017;28;20670;-72
2023/12/03 04:19:24;;;;;;;30.20;11.93;;;;;;;-0.34;100.00;100967.81;5155513;28;20026;-74
2023/12/03 04:21:54;;;;;;;33.28;12.20;;;;;;;-0.31;100.00;100974.66;5146821;28;20022;-74
2023/12/03 04:24:25;;;;;;;33.42;12.30;;;;;;;-0.30;100.00;100978.97;5150470;28;20030;-72
2023/12/03 04:26:55;;;;;;;30.98;11.63;;;;;;;-0.24;100.00;100979.91;5150913;28;20149;-73
2023/12/03 04:29:25;;;;;;;34.30;12.80;;;;;;;-0.30;100.00;100971.25;5149309;28;20536;-73
2023/12/03 04:31:56;;;;;;;34.30;12.65;;;;;;;-0.20;100.00;100973.13;5151795;28;20046;-73
2023/12/03 04:34:26;;;;;;;31.17;11.98;;;;;;;-0.22;100.00;100972.25;5149873;28;20173;-73
2023/12/03 04:36:56;;;;;;;32.88;12.80;;;;;;;-0.30;100.00;100978.97;5152195;28;20037;-74
2023/12/03 04:39:28;;;;;;;37.15;13.65;;;;;;;-0.23;100.00;100973.94;5149304;28;20034;-74
2023/12/03 04:41:59;;;;;;;31.25;12.18;;;;;;;-0.23;100.00;100975.66;5148695;28;20488;-73
2023/12/03 04:44:31;;;;;;;34.50;12.77;;;;;;;-0.27;100.00;100974.75;5147715;28;20034;-73
2023/12/03 04:47:01;;;;;;;37.83;12.55;;;;;;;-0.26;100.00;100976.47;5151665;28;20695;-74
2023/12/03 04:49:31;;;;;;;35.22;13.15;;;;;;;-0.21;100.00;100974.81;5153031;28;20044;-74
2023/12/03 04:52:02;;;;;;;34.38;11.93;;;;;;;-0.34;100.00;100972.06;5148655;28;20482;-74
2023/12/03 04:54:32;;;;;;;31.10;11.57;;;;;;;-0.25;100.00;100974.78;5147987;28;20030;-74
2023/12/03 04:57:03;;;;;;;33.55;12.70;;;;;;;-0.36;100.00;100969.47;5148200;28;20117;-74
2023/12/03 04:59:33;;;;;;;34.85;12.77;;;;;;;-0.39;100.00;100976.28;5153846;28;20041;-74
2023/12/03 05:02:03;;;;;;;36.15;13.05;;;;;;;-0.34;100.00;100972.06;5148741;28;20022;-73
2023/12/03 05:04:33;;;;;;;32.35;11.77;;;;;;;-0.43;100.00;100974.47;5151128;28;20061;-74
2023/12/03 05:07:04;;;;;;;29.48;12.13;;;;;;;-0.37;100.00;100978.00;5148432;28;20649;-74
2023/12/03 05:09:39;;;;;;;31.67;11.30;;;;;;;-0.37;100.00;100978.00;5150923;28;20029;-74
2023/12/03 05:12:09;;;;;;;;;;;;;;;-0.19;100.00;100977.41;5147475;28;20077;-73
2023/12/03 05:14:40;;;;;;;32.00;11.83;;;;;;;-0.14;100.00;100983.47;5151816;28;19957;-74
2023/12/03 05:17:10;;;;;;;34.85;12.77;;;;;;;-0.23;100.00;100985.94;5150448;28;20273;-73
2023/12/03 05:19:42;;;;;;;34.33;12.43;;;;;;;-0.26;100.00;100986.72;5151589;28;20480;-73
2023/12/03 05:22:12;;;;;;;34.13;12.95;;;;;;;-0.31;100.00;100988.38;5150073;28;20026;-74
2023/12/03 05:24:42;;;;;;;36.20;12.65;;;;;;;-0.27;100.00;100996.97;5152125;28;20480;-73
2023/12/03 05:27:13;;;;;;;35.40;12.20;;;;;;;-0.25;100.00;100997.88;5148374;28;20031;-73
2023/12/03 05:29:43;;;;;;;34.03;12.82;;;;;;;-0.30;100.00;100996.94;5151186;28;20034;-73
2023/12/03 05:32:14;;;;;;;31.25;11.68;;;;;;;-0.29;100.00;101001.22;5152442;28;20058;-73
2023/12/03 05:34:45;;;;;;;38.22;12.77;;;;;;;-0.27;100.00;101005.56;5151002;28;20415;-74
2023/12/03 05:37:15;;;;;;;34.95;12.88;;;;;;;-0.27;100.00;101002.09;5154975;28;20412;-73
2023/12/03 05:39:46;;;;;;;34.50;13.40;;;;;;;-0.29;100.00;101006.34;5150955;28;20027;-73
2023/12/03 05:42:16;;;;;;;37.25;13.57;;;;;;;-0.26;100.00;101011.53;5148128;28;20509;-73
2023/12/03 05:44:47;;;;;;;34.40;13.43;;;;;;;-0.31;100.00;101013.19;5151567;28;20536;-73
2023/12/03 05:47:17;;;;;;;35.20;13.45;;;;;;;-0.25;100.00;101008.16;5149321;28;20026;-73
2023/12/03 05:49:47;;;;;;;37.17;13.10;;;;;;;-0.23;100.00;101003.91;5156193;28;20109;-73
2023/12/03 05:52:17;;;;;;;37.60;13.75;;;;;;;-0.17;100.00;101003.97;5156004;28;20035;-73
2023/12/03 05:54:48;;;;;;;34.17;13.40;;;;;;;-0.13;100.00;101013.44;5155768;28;20649;-73
2023/12/03 05:57:18;;;;;;;36.22;13.57;;;;;;;-0.23;100.00;101017.59;5149035;28;20035;-73
2023/12/03 05:59:49;;;;;;;36.08;14.13;;;;;;;-0.07;100.00;101016.97;5158218;28;20023;-73
2023/12/03 06:02:20;;;;;;;37.42;14.38;;;;;;;-0.16;100.00;101008.25;5152326;28;20392;-73
2023/12/03 06:04:50;;;;;;;40.22;14.38;;;;;;;-0.17;100.00;101017.69;5156455;28;20091;-73
2023/12/03 06:07:20;;;;;;;32.22;13.32;;;;;;;-0.11;100.00;101022.91;5152938;28;20029;-73
2023/12/03 06:09:51;;;;;;;38.38;14.85;;;;;;;-0.13;100.00;101018.56;5152643;28;20028;-74
2023/12/03 06:12:21;;;;;;;37.42;14.73;;;;;;;-0.06;100.00;101025.53;5152061;28;20548;-73
2023/12/03 06:14:51;;;;;;;35.50;13.05;;;;;;;-0.07;100.00;101028.97;5157634;28;20025;-73
2023/12/03 06:17:22;;;;;;;37.83;14.15;;;;;;;-0.12;100.00;101028.00;5150851;28;20102;-73
2023/12/03 06:19:52;;;;;;;35.72;14.70;;;;;;;-0.15;100.00;101030.53;5155813;28;20033;-73
2023/12/03 06:22:22;;;;;;;39.47;14.60;;;;;;;-0.12;100.00;101028.00;5151946;28;20483;-73
2023/12/03 06:24:52;;;;;;;37.08;13.57;;;;;;;-0.09;100.00;101038.31;5153779;28;20338;-73
2023/12/03 06:27:23;;;;;;;35.75;14.13;;;;;;;-0.09;100.00;101035.75;5155603;28;20476;-74
2023/12/03 06:29:53;;;;;;;32.45;12.75;;;;;;;0.00;100.00;101039.34;5157171;28;20030;-73
2023/12/03 06:32:23;;;;;;;34.72;13.65;;;;;;;0.04;100.00;101036.81;5155620;28;20193;-71
2023/12/03 06:34:54;;;;;;;38.25;15.77;;;;;;;0.00;100.00;101047.03;5149268;28;20176;-73
2023/12/03 06:37:24;;;;;;;37.70;14.70;;;;;;;0.01;100.00;101036.78;5153560;28;20035;-72
2023/12/03 06:39:54;;;;;;;35.28;13.82;;;;;;;0.00;100.00;101041.91;5155581;28;20591;-73
2023/12/03 06:42:24;;;;;;;33.50;13.45;;;;;;;0.07;100.00;101043.72;5153065;28;20109;-72
2023/12/03 06:44:55;;;;;;;36.38;14.40;;;;;;;0.07;100.00;101048.84;5156362;28;20374;-73
2023/12/03 06:50:15;;;;;;;35.75;14.25;;;;;;;-0.07;100.00;101050.34;5186346;28;20045;-78
2023/12/03 06:52:45;;;;;;;37.10;14.23;;;;;;;-0.12;100.00;101051.13;5191594;28;20438;-78
2023/12/03 06:55:16;;;;;;;34.90;14.13;;;;;;;-0.11;100.00;101053.72;5194705;28;20503;-78
2023/12/03 06:57:46;;;;;;;36.05;14.73;;;;;;;-0.17;100.00;101053.66;5195440;28;20094;-79
2023/12/03 07:00:17;;;;;;;36.47;14.25;;;;;;;-0.14;100.00;101060.50;5193543;28;20029;-78
2023/12/03 07:02:47;;;;;;;38.40;14.30;;;;;;;-0.16;100.00;101070.78;5191656;28;20502;-78
2023/12/03 07:05:17;;;;;;;37.47;15.15;;;;;;;-0.08;100.00;101069.16;5194945;28;20026;-79
2023/12/03 07:07:48;;;;;;;37.38;15.00;;;;;;;-0.07;100.00;101076.03;5190919;28;20040;-78
2023/12/03 07:10:18;;;;;;;40.35;14.93;;;;;;;0.10;100.00;101070.31;5188940;28;20034;-78
2023/12/03 07:12:49;;;;;;;39.42;14.75;;;;;;;0.06;100.00;101077.94;5193193;28;20406;-79
2023/12/03 07:15:19;;;;;;;41.28;14.93;;;;;;;0.04;100.00;101087.34;5189683;28;20055;-77
2023/12/03 07:17:49;;;;;;;40.65;15.32;;;;;;;0.12;100.00;101080.59;5193246;28;20124;-79
2023/12/03 07:20:20;;;;;;;39.22;15.45;;;;;;;0.15;100.00;101090.91;5191876;28;20029;-79
2023/12/03 07:22:50;;;;;;;43.10;16.48;;;;;;;0.27;100.00;101098.78;5194792;28;20025;-79
2023/12/03 07:25:20;;;;;;;37.88;16.17;;;;;;;0.23;100.00;101092.75;5192927;28;20473;-76
2023/12/03 07:27:51;;;;;;;45.53;16.83;;;;;;;0.25;100.00;101096.19;5188001;28;20116;-73
2023/12/03 07:30:22;;;;;;;41.92;17.88;;;;;;;0.29;100.00;101098.00;5186093;28;20026;-76
2023/12/03 07:32:54;;;;;;;44.83;17.73;;;;;;;0.23;100.00;101097.88;5186731;28;20025;-76
2023/12/03 07:35:24;;;;;;;38.38;16.98;;;;;;;0.38;100.00;101110.09;5185631;28;20533;-73
2023/12/03 07:37:55;;;;;;;39.90;16.58;;;;;;;0.37;100.00;101108.38;5189037;28;20033;-75
2023/12/03 07:40:26;;;;;;;36.85;16.45;;;;;;;0.35;100.00;101110.06;5188646;28;20398;-75
2023/12/03 07:42:56;;;;;;;41.03;15.98;;;;;;;0.42;100.00;101114.44;5191851;28;20033;-76
2023/12/03 07:45:26;;;;;;;36.92;15.88;;;;;;;0.60;100.00;101115.53;5183271;28;20550;-76
2023/12/03 07:47:57;;;;;;;38.20;15.27;;;;;;;0.52;100.00;101122.28;5188097;28;20040;-76
2023/12/03 07:50:27;;;;;;;39.97;15.98;;;;;;;0.63;100.00;101115.56;5191408;28;20056;-77
2023/12/03 07:52:59;;;;;;;40.47;15.15;;;;;;;0.59;100.00;101123.22;5189349;28;20037;-75
2023/12/03 07:55:29;;;;;;;37.60;15.93;;;;;;;0.50;100.00;101123.97;5187649;28;20033;-76
2023/12/03 07:57:59;;;;;;;37.08;15.25;;;;;;;0.61;100.00;101124.09;5191808;28;20045;-75
2023/12/03 08:00:29;;;;;;;31.65;15.05;;;;;;;0.56;100.00;101126.59;5190758;28;20472;-76
2023/12/03 08:03:00;;;;;;;34.67;15.90;;;;;;;0.54;100.00;101130.03;5185877;28;20032;-76
2023/12/03 08:05:31;;;;;;;35.72;14.88;;;;;;;0.65;100.00;101128.44;5187549;28;20037;-76
2023/12/03 08:08:01;;;;;;;38.00;15.90;;;;;;;0.70;100.00;101127.66;5186699;28;20037;-76
2023/12/03 08:10:31;;;;;;;36.67;16.70;;;;;;;0.69;100.00;101127.66;5185022;28;20037;-76
2023/12/03 08:13:02;;;;;;;38.95;16.65;;;;;;;0.64;100.00;101126.72;5184904;28;20077;-75
2023/12/03 08:15:32;;;;;;;38.30;15.40;;;;;;;0.74;100.00;101129.41;5183239;28;20036;-76
2023/12/03 08:18:03;;;;;;;39.63;16.65;;;;;;;0.81;100.00;101131.25;5187708;28;20037;-76
2023/12/03 08:20:33;;;;;;;40.90;16.73;;;;;;;0.82;100.00;101137.22;5183208;28;20521;-74
2023/12/03 08:23:04;;;;;;;41.15;17.95;;;;;;;0.79;100.00;101140.66;5178852;28;20026;-72
2023/12/03 08:25:34;;;;;;;39.70;16.70;;;;;;;0.90;100.00;101138.19;5176709;28;20534;-75
2023/12/03 08:28:05;;;;;;;36.22;16.83;;;;;;;0.92;100.00;101139.94;5175346;28;20064;-75
2023/12/03 08:30:36;;;;;;;40.08;16.45;;;;;;;0.97;100.00;101137.41;5176839;28;20509;-74
2023/12/03 08:33:06;;;;;;;40.40;17.98;;;;;;;0.95;100.00;101144.25;5177486;28;20025;-71
2023/12/03 08:35:37;;;;;;;40.50;17.92;;;;;;;0.78;100.00;101143.19;5172933;28;20274;-74
2023/12/03 08:38:07;;;;;;;36.72;17.00;;;;;;;0.99;100.00;101149.47;5180229;28;20053;-72
2023/12/03 08:40:38;;;;;;;44.35;18.75;;;;;;;1.03;100.00;101142.66;5178842;28;20029;-75
2023/12/03 08:43:08;;;;;;;44.90;19.23;;;;;;;1.02;100.00;101146.03;5182357;28;20071;-73
2023/12/03 08:45:39;;;;;;;44.60;20.15;;;;;;;1.05;100.00;101143.53;5183121;28;20025;-76
2023/12/03 08:48:09;;;;;;;38.00;17.30;;;;;;;1.15;100.00;101148.78;5183518;28;20041;-72
2023/12/03 08:50:40;;;;;;;40.20;17.80;;;;;;;1.17;100.00;101147.09;5179607;28;20449;-75
2023/12/03 08:53:10;;;;;;;37.13;17.25;;;;;;;1.10;100.00;101145.28;5173889;28;20041;-73
2023/12/03 08:55:41;;;;;;;47.65;17.85;;;;;;;1.04;100.00;101157.25;5169783;28;20403;-74
2023/12/03 08:58:11;;;;;;;45.67;19.08;;;;;;;1.08;100.00;101157.28;5180171;28;20034;-73
2023/12/03 09:00:42;;;;;;;47.53;20.38;;;;;;;0.94;100.00;101153.69;5175599;28;20026;-74
2023/12/03 09:03:12;;;;;;;53.42;23.20;;;;;;;1.10;100.00;101159.88;5181078;28;20043;-73
2023/12/03 09:05:43;;;;;;;48.22;20.15;;;;;;;1.21;100.00;101153.16;5178131;28;20137;-75
2023/12/03 09:08:13;;;;;;;46.50;20.83;;;;;;;1.35;100.00;101156.72;5175181;28;20045;-73
2023/12/03 09:10:43;;;;;;;47.08;20.80;;;;;;;1.55;100.00;101157.81;5173762;28;21752;-75
2023/12/03 09:13:14;;;;;;;44.78;18.58;;;;;;;1.54;100.00;101161.22;5178282;28;20096;-73
2023/12/03 09:15:44;;;;;;;44.40;19.05;;;;;;;1.54;100.00;101161.22;5180978;28;20127;-76
2023/12/03 09:18:15;;;;;;;45.47;18.75;;;;;;;1.43;100.00;101170.53;5182340;28;20059;-73
2023/12/03 09:20:45;;;;;;;45.22;18.70;;;;;;;1.67;100.00;101171.66;5183844;28;20030;-75
2023/12/03 09:23:16;;;;;;;40.53;17.98;;;;;;;1.57;100.00;101174.97;5179032;28;20045;-73
2023/12/03 09:25:46;;;;;;;45.28;19.13;;;;;;;1.57;100.00;101176.72;5181022;28;20021;-75
2023/12/03 09:28:16;;;;;;;45.00;19.00;;;;;;;1.69;100.00;101190.56;5181892;28;20061;-75
2023/12/03 09:30:47;;;;;;;47.22;19.83;;;;;;;1.48;100.00;101190.34;5178772;28;20048;-73
2023/12/03 09:33:17;;;;;;;48.33;19.15;;;;;;;1.56;100.00;101191.28;5176566;28;20437;-73
2023/12/03 09:35:47;;;;;;;42.63;18.70;;;;;;;1.82;100.00;101197.56;5176172;28;20091;-75
2023/12/03 09:38:18;;;;;;;46.58;19.42;;;;;;;1.68;100.00;101196.56;5177218;28;20120;-75
2023/12/03 09:40:49;;;;;;;50.00;20.02;;;;;;;1.67;100.00;101202.56;5183580;28;20038;-72
2023/12/03 09:43:20;;;;;;;47.20;19.83;;;;;;;1.74;100.00;101198.34;5187140;28;20438;-75
2023/12/03 09:45:55;;;;;;;50.33;19.55;;;;;;;1.58;100.00;101209.34;5167611;28;20404;-75
2023/12/03 09:48:29;;;;;;;47.90;19.85;;;;;;;1.49;100.00;101211.81;5176135;28;20038;-73
2023/12/03 09:51:00;;;;;;;53.67;19.33;;;;;;;1.52;100.00;101212.72;5184946;28;20046;-75
2023/12/03 09:53:35;;;;;;;46.45;18.92;;;;;;;1.60;100.00;101211.06;5183217;28;20100;-75
2023/12/03 09:56:07;;;;;;;47.83;19.95;;;;;;;1.91;100.00;101224.28;5178938;28;20052;-75
2023/12/03 09:58:37;;;;;;;54.17;20.92;;;;;;;1.71;100.00;101224.94;5179269;28;20609;-77
2023/12/03 10:01:08;;;;;;;47.63;20.27;;;;;;;1.70;100.00;101218.06;5183539;28;20025;-76
2023/12/03 10:03:38;;;;;;;49.17;20.25;;;;;;;1.62;100.00;101217.13;5183647;28;20391;-77
2023/12/03 10:06:10;;;;;;;50.08;20.08;;;;;;;1.58;100.00;101217.06;5181112;28;20037;-73
2023/12/03 10:08:42;;;;;;;55.13;20.48;;;;;;;1.63;100.00;101216.28;5178663;28;20025;-72
2023/12/03 10:11:21;;;;;;;52.25;20.70;;;;;;;1.85;100.00;101224.19;5189462;28;20038;-72
2023/12/03 10:13:54;;;;;;;55.15;21.27;;;;;;;1.71;100.00;101222.34;5180958;28;20105;-75
2023/12/03 10:16:25;;;;;;;49.50;19.73;;;;;;;1.82;100.00;101224.19;5180745;28;20034;-72
2023/12/03 10:18:55;;;;;;;54.30;21.00;;;;;;;1.83;100.00;101231.06;5188763;28;20038;-74
2023/12/03 10:21:27;;;;;;;51.28;21.00;;;;;;;2.00;100.00;101244.97;5179191;28;21399;-72
2023/12/03 10:24:00;;;;;;;52.05;19.85;;;;;;;1.84;100.00;101237.94;5184073;28;20041;-75
2023/12/03 10:26:31;;;;;;;47.92;19.88;;;;;;;1.98;100.00;101245.81;5174087;28;20108;-77
2023/12/03 10:29:01;;;;;;;51.53;21.00;;;;;;;1.83;100.00;101241.38;5181583;28;20030;-77
2023/12/03 10:31:32;;;;;;;51.30;20.25;;;;;;;1.97;100.00;101244.09;5172759;28;20052;-77
2023/12/03 10:34:03;;;;;;;48.25;19.63;;;;;;;2.02;100.00;101247.56;5172441;28;20033;-77
2023/12/03 10:36:33;;;;;;;50.28;19.65;;;;;;;2.00;100.00;101231.25;5170217;28;20641;-75
2023/12/03 10:39:07;;;;;;;48.10;19.10;;;;;;;2.25;100.00;101243.47;5178352;28;20025;-75
2023/12/03 10:41:38;;;;;;;48.25;19.30;;;;;;;2.07;100.00;101248.47;5176614;28;20060;-73
2023/12/03 10:44:15;;;;;;;45.92;19.70;;;;;;;2.13;100.00;101238.22;5173432;28;20030;-73
2023/12/03 10:46:45;;;;;;;49.50;19.83;;;;;;;2.24;100.00;101245.22;5173628;28;20492;-75
2023/12/03 10:49:16;;;;;;;48.22;19.88;;;;;;;2.13;100.00;101253.69;5173928;28;20040;-72
2023/12/03 10:51:47;;;;;;;50.05;19.63;;;;;;;2.17;100.00;101252.88;5163280;28;20044;-75
2023/12/03 10:54:18;;;;;;;50.88;19.77;;;;;;;2.28;100.00;101253.81;5174862;28;20030;-74
2023/12/03 10:56:54;;;;;;;50.97;20.23;;;;;;;2.34;100.00;101251.31;5168316;28;20033;-75
2023/12/03 10:59:28;;;;;;;50.97;20.38;;;;;;;2.30;100.00;101249.56;5173818;28;20734;-72
2023/12/03 11:02:02;;;;;;;55.33;21.40;;;;;;;2.34;100.00;101251.31;5173404;28;20494;-75
2023/12/03 11:05:01;;;;;;;58.13;21.88;;;;;;;2.39;100.00;101259.94;5171718;28;20068;-78
2023/12/03 11:07:33;;;;;;;50.97;21.15;;;;;;;2.32;100.00;101253.84;5169417;28;20265;-74
2023/12/03 11:10:05;;;;;;;51.20;21.85;;;;;;;2.45;100.00;101252.22;5172890;28;20455;-75
2023/12/03 11:12:36;;;;;;;48.08;20.70;;;;;;;2.26;100.00;101247.78;5167869;28;20038;-75
2023/12/03 11:15:08;;;;;;;52.22;19.98;;;;;;;2.36;100.00;101249.59;5176258;28;20513;-75
2023/12/03 11:17:44;;;;;;;53.25;20.73;;;;;;;2.25;100.00;101252.09;5165780;28;20509;-75
2023/12/03 11:20:18;;;;;;;53.20;21.00;;;;;;;1.98;100.00;101246.66;5170429;28;20042;-73
2023/12/03 11:23:10;;;;;;;60.08;22.13;;;;;;;2.04;100.00;101251.03;5174582;28;21046;-75